Time;durP1;ratioP1;P1;durP2;ratioP2;P2;SDS_P1;SDS_P2;PMS_P1;PMS_P2;Temp;Humidity;BMP_temperature;BMP_pressure;BME280_temperature;BME280_humidity;BME280_pressure;Samples;Min_cycle;Max_cycle;Signal;HPM_P1;HPM_P2
2023/12/08 00:02:14;;;;;;;23.75;14.77;;;4.50;99.90;;;;;;4993664;28;20084;-79
2023/12/08 00:04:40;;;;;;;22.95;15.00;;;4.40;99.90;;;;;;4995172;28;20478;-80
2023/12/08 00:07:16;;;;;;;23.52;15.52;;;4.40;99.90;;;;;;4984547;28;20034;-80
2023/12/08 00:10:00;;;;;;;26.70;17.00;;;4.30;99.90;;;;;;4987722;28;20031;-79
2023/12/08 00:12:28;;;;;;;26.58;16.17;;;4.30;99.90;;;;;;4990610;28;20081;-80
2023/12/08 00:14:53;;;;;;;27.25;16.67;;;4.30;99.90;;;;;;4990309;28;20030;-79
2023/12/08 00:17:19;;;;;;;26.63;16.15;;;4.30;99.90;;;;;;4990402;28;20039;-79
2023/12/08 00:19:45;;;;;;;25.27;16.45;;;4.30;99.90;;;;;;4991045;28;20563;-79
2023/12/08 00:22:11;;;;;;;24.65;16.60;;;4.30;99.90;;;;;;4992366;28;20038;-79
2023/12/08 00:24:37;;;;;;;27.08;17.05;;;4.30;99.90;;;;;;4992124;28;20533;-79
2023/12/08 00:27:03;;;;;;;26.13;16.52;;;4.30;99.90;;;;;;4980980;28;20043;-79
2023/12/08 00:29:29;;;;;;;27.08;17.50;;;4.20;99.90;;;;;;4992863;28;20478;-79
2023/12/08 00:31:54;;;;;;;27.40;16.85;;;4.20;99.90;;;;;;4993941;28;20383;-79
2023/12/08 00:34:20;;;;;;;30.05;17.60;;;4.10;99.90;;;;;;4991601;28;20501;-80
2023/12/08 00:36:46;;;;;;;27.80;17.58;;;4.10;99.90;;;;;;4993041;28;20501;-79
2023/12/08 00:39:12;;;;;;;29.88;18.80;;;4.10;99.90;;;;;;4992308;28;20094;-78
2023/12/08 00:41:37;;;;;;;29.20;19.60;;;4.00;99.90;;;;;;4991901;28;20035;-77
2023/12/08 00:44:04;;;;;;;29.73;18.92;;;4.00;99.90;;;;;;4991602;28;20072;-80
2023/12/08 00:46:31;;;;;;;29.23;19.15;;;3.90;99.90;;;;;;4990376;28;20026;-79
2023/12/08 00:48:57;;;;;;;31.88;20.35;;;3.90;99.90;;;;;;4990914;28;20475;-80
2023/12/08 00:51:23;;;;;;;33.42;20.50;;;3.80;99.90;;;;;;4989492;28;20030;-78
2023/12/08 00:53:53;;;;;;;31.50;20.67;;;3.70;99.90;;;;;;4991237;28;20029;-78
2023/12/08 00:56:19;;;;;;;31.83;21.48;;;3.70;99.90;;;;;;4986887;28;21817;-77
2023/12/08 00:58:45;;;;;;;32.70;22.30;;;3.70;99.90;;;;;;4988368;28;20026;-79
2023/12/08 01:01:11;;;;;;;32.60;22.65;;;3.60;99.90;;;;;;4989987;28;20043;-79
2023/12/08 01:03:37;;;;;;;34.85;22.67;;;3.60;99.90;;;;;;4992090;28;20441;-78
2023/12/08 01:06:05;;;;;;;34.17;22.52;;;3.60;99.90;;;;;;4989608;28;20478;-79
2023/12/08 01:08:36;;;;;;;34.40;23.80;;;3.60;99.90;;;;;;4991305;28;20039;-78
2023/12/08 01:11:01;;;;;;;35.15;23.58;;;3.50;99.90;;;;;;4991773;28;20029;-78
2023/12/08 01:13:27;;;;;;;34.40;23.50;;;3.50;99.90;;;;;;4991145;28;20034;-77
2023/12/08 01:15:52;;;;;;;34.50;23.88;;;3.50;99.90;;;;;;4990873;28;20383;-78
2023/12/08 01:18:18;;;;;;;37.92;24.73;;;3.50;99.90;;;;;;4994983;28;20463;-79
2023/12/08 01:20:43;;;;;;;39.10;25.58;;;3.50;99.90;;;;;;4994374;28;20030;-77
2023/12/08 01:23:09;;;;;;;36.00;25.13;;;3.50;99.90;;;;;;4997311;28;20031;-79
2023/12/08 01:25:34;;;;;;;37.03;25.73;;;3.50;99.90;;;;;;4997634;28;20026;-79
2023/12/08 01:28:00;;;;;;;36.33;25.05;;;3.50;99.90;;;;;;4995915;28;20446;-79
2023/12/08 01:30:25;;;;;;;38.75;26.55;;;3.50;99.90;;;;;;4997191;28;20102;-78
2023/12/08 01:32:51;;;;;;;42.92;28.23;;;3.50;99.90;;;;;;4996157;28;20363;-78
2023/12/08 01:35:16;;;;;;;40.20;27.60;;;3.50;99.90;;;;;;4995116;28;20486;-78
2023/12/08 01:37:42;;;;;;;40.15;27.00;;;3.40;99.90;;;;;;4995624;28;20053;-78
2023/12/08 01:40:08;;;;;;;40.75;28.27;;;3.40;99.90;;;;;;4995079;28;20064;-77
2023/12/08 01:42:34;;;;;;;42.15;29.52;;;3.40;99.90;;;;;;4994926;28;20066;-78
2023/12/08 01:44:59;;;;;;;44.65;28.88;;;3.40;99.90;;;;;;4994136;28;20073;-77
2023/12/08 01:47:25;;;;;;;44.58;29.20;;;3.40;99.90;;;;;;4996369;28;20202;-78
2023/12/08 01:49:51;;;;;;;45.20;29.70;;;3.40;99.90;;;;;;4995595;28;20062;-78
2023/12/08 01:52:22;;;;;;;45.60;29.27;;;3.40;99.90;;;;;;4993870;28;20027;-77
2023/12/08 01:54:55;;;;;;;43.17;28.43;;;3.40;99.90;;;;;;4993599;28;20454;-78
2023/12/08 01:57:21;;;;;;;43.33;28.48;;;3.40;99.90;;;;;;4995764;28;20093;-77
2023/12/08 01:59:48;;;;;;;41.60;28.75;;;3.40;99.90;;;;;;4995188;28;20026;-78
2023/12/08 02:02:14;;;;;;;41.40;27.17;;;3.40;99.90;;;;;;4995156;28;20038;-78
2023/12/08 02:04:43;;;;;;;41.50;27.98;;;3.40;99.90;;;;;;4996501;28;20049;-78
2023/12/08 02:07:09;;;;;;;42.42;28.52;;;3.40;99.90;;;;;;4995003;28;20554;-78
2023/12/08 02:09:35;;;;;;;45.40;29.00;;;3.30;99.90;;;;;;4994953;28;20045;-78
2023/12/08 02:12:01;;;;;;;45.03;29.25;;;3.30;99.90;;;;;;4994930;28;20475;-78
2023/12/08 02:14:26;;;;;;;43.80;29.33;;;3.40;99.90;;;;;;4995606;28;20034;-78
2023/12/08 02:16:56;;;;;;;46.45;30.58;;;3.30;99.90;;;;;;4994888;28;20026;-78
2023/12/08 02:19:23;;;;;;;47.00;31.15;;;3.30;99.90;;;;;;4994929;28;20030;-79
2023/12/08 02:21:48;;;;;;;47.20;30.60;;;3.30;99.90;;;;;;4993650;28;20030;-78
2023/12/08 02:24:19;;;;;;;43.30;30.50;;;3.30;99.90;;;;;;4995476;28;20022;-78
2023/12/08 02:26:45;;;;;;;43.72;29.38;;;3.30;99.90;;;;;;4994533;28;20027;-79
2023/12/08 02:29:11;;;;;;;46.88;31.58;;;3.30;99.90;;;;;;4993802;28;20617;-78
2023/12/08 02:31:45;;;;;;;43.35;29.45;;;3.30;99.90;;;;;;4993287;28;20117;-76
2023/12/08 02:34:14;;;;;;;45.60;29.67;;;3.30;99.90;;;;;;4994821;28;20030;-75
2023/12/08 02:36:41;;;;;;;46.45;30.15;;;3.30;99.90;;;;;;4986117;28;20031;-75
2023/12/08 02:39:08;;;;;;;44.50;30.20;;;3.30;99.90;;;;;;4996116;28;20062;-75
2023/12/08 02:41:34;;;;;;;45.90;31.80;;;3.30;99.90;;;;;;4995530;28;20026;-77
2023/12/08 02:43:59;;;;;;;44.42;30.70;;;3.40;99.90;;;;;;4983835;28;20033;-75
2023/12/08 02:46:25;;;;;;;47.00;31.17;;;3.30;99.90;;;;;;4990086;28;20581;-77
2023/12/08 02:48:50;;;;;;;47.10;31.92;;;3.40;99.90;;;;;;4990285;28;20112;-75
2023/12/08 02:51:16;;;;;;;46.63;31.90;;;3.40;99.90;;;;;;4995507;28;20023;-75
2023/12/08 02:53:41;;;;;;;49.53;31.30;;;3.40;99.90;;;;;;4995349;28;20033;-75
2023/12/08 02:56:07;;;;;;;46.67;30.77;;;3.40;99.90;;;;;;4993698;28;20077;-77
2023/12/08 02:58:34;;;;;;;47.30;30.67;;;3.40;99.90;;;;;;4995702;28;20061;-75
2023/12/08 03:00:59;;;;;;;49.30;33.47;;;3.40;99.90;;;;;;4994710;28;20759;-78
2023/12/08 03:03:25;;;;;;;48.42;32.17;;;3.40;99.90;;;;;;4990995;28;20049;-76
2023/12/08 03:05:50;;;;;;;49.25;32.53;;;3.50;99.90;;;;;;4994022;28;20027;-77
2023/12/08 03:08:16;;;;;;;46.38;32.15;;;3.50;99.90;;;;;;4994058;28;20077;-77
2023/12/08 03:10:42;;;;;;;49.30;34.03;;;3.50;99.90;;;;;;4988443;28;20038;-78
2023/12/08 03:13:07;;;;;;;50.35;34.03;;;3.50;99.90;;;;;;4993388;28;20037;-78
2023/12/08 03:15:33;;;;;;;49.63;32.45;;;3.50;99.90;;;;;;4995233;28;20049;-78
2023/12/08 03:17:58;;;;;;;49.70;33.03;;;3.50;99.90;;;;;;4992263;28;20084;-77
2023/12/08 03:20:24;;;;;;;47.50;31.02;;;3.50;99.90;;;;;;4992517;28;20081;-77
2023/12/08 03:22:49;;;;;;;48.83;33.15;;;3.50;99.90;;;;;;4989702;28;20078;-77
2023/12/08 03:25:15;;;;;;;46.22;30.48;;;3.50;99.90;;;;;;4991424;28;20042;-77
2023/12/08 03:27:40;;;;;;;48.70;31.35;;;3.60;99.90;;;;;;4991659;28;20432;-76
2023/12/08 03:30:07;;;;;;;46.85;31.30;;;3.60;99.90;;;;;;4992054;28;20208;-76
2023/12/08 03:32:32;;;;;;;47.17;29.50;;;3.60;99.90;;;;;;4992974;28;20027;-76
2023/12/08 03:34:58;;;;;;;43.95;31.35;;;3.60;99.90;;;;;;4990700;28;20046;-77
2023/12/08 03:37:23;;;;;;;43.58;29.42;;;3.60;99.90;;;;;;4993229;28;20076;-75
2023/12/08 03:39:49;;;;;;;43.53;29.58;;;3.60;99.90;;;;;;4992134;28;20037;-76
2023/12/08 03:42:15;;;;;;;44.63;30.38;;;3.60;99.90;;;;;;4991938;28;20085;-76
2023/12/08 03:44:40;;;;;;;46.70;29.63;;;3.70;99.90;;;;;;4994311;28;20066;-77
2023/12/08 03:47:06;;;;;;;46.47;30.55;;;3.70;99.90;;;;;;4992780;28;20081;-76
2023/12/08 03:49:31;;;;;;;44.97;30.67;;;3.70;99.90;;;;;;4994587;28;20030;-76
2023/12/08 03:51:57;;;;;;;40.95;28.17;;;3.70;99.90;;;;;;4993587;28;20029;-76
2023/12/08 03:54:22;;;;;;;43.47;28.35;;;3.60;99.90;;;;;;4994273;28;20045;-76
2023/12/08 03:56:48;;;;;;;43.55;29.60;;;3.60;99.90;;;;;;4993085;28;20054;-76
2023/12/08 03:59:13;;;;;;;40.85;28.70;;;3.70;99.90;;;;;;4994071;28;20069;-76
2023/12/08 04:01:39;;;;;;;40.45;28.73;;;3.70;99.90;;;;;;4992273;28;20535;-76
2023/12/08 04:04:05;;;;;;;44.65;29.90;;;3.70;99.90;;;;;;4994422;28;20097;-76
2023/12/08 04:06:30;;;;;;;44.10;28.75;;;3.70;99.90;;;;;;4991762;28;20038;-77
2023/12/08 04:08:56;;;;;;;69.38;31.05;;;3.70;99.90;;;;;;4991988;28;20026;-78
2023/12/08 04:11:21;;;;;;;39.35;27.70;;;3.70;99.90;;;;;;4993810;28;20390;-76
2023/12/08 04:13:47;;;;;;;140.18;37.08;;;3.80;99.90;;;;;;4994191;28;20026;-77
2023/12/08 04:16:14;;;;;;;43.45;28.42;;;3.70;99.90;;;;;;4992591;28;20121;-77
2023/12/08 04:18:39;;;;;;;50.50;31.88;;;3.80;99.90;;;;;;4993862;28;20026;-77
2023/12/08 04:21:05;;;;;;;45.92;29.77;;;3.80;99.90;;;;;;4993958;28;20085;-77
2023/12/08 04:23:31;;;;;;;172.70;43.03;;;3.80;99.90;;;;;;4993001;28;20037;-76
2023/12/08 04:25:56;;;;;;;72.18;32.17;;;3.80;99.90;;;;;;4993753;28;20038;-77
2023/12/08 04:28:22;;;;;;;44.88;30.20;;;3.90;99.90;;;;;;4992809;28;20030;-77
2023/12/08 04:30:47;;;;;;;45.90;29.73;;;3.80;99.90;;;;;;4990383;28;20035;-77
2023/12/08 04:33:13;;;;;;;98.93;35.92;;;3.80;99.90;;;;;;4994306;28;20333;-77
2023/12/08 04:35:38;;;;;;;194.95;45.80;;;3.80;99.90;;;;;;4992114;28;20034;-77
2023/12/08 04:38:04;;;;;;;45.08;30.30;;;3.80;99.90;;;;;;4994458;28;20038;-77
2023/12/08 04:40:30;;;;;;;107.55;36.88;;;3.80;99.90;;;;;;4979233;28;20084;-77
2023/12/08 04:42:55;;;;;;;44.17;29.70;;;3.90;99.90;;;;;;4990378;28;20433;-77
2023/12/08 04:45:21;;;;;;;43.13;27.67;;;3.90;99.90;;;;;;4992622;28;20038;-77
2023/12/08 04:47:46;;;;;;;60.35;29.75;;;3.90;99.90;;;;;;4991657;28;20041;-77
2023/12/08 04:50:12;;;;;;;78.95;32.25;;;3.90;99.90;;;;;;4993345;28;20046;-77
2023/12/08 04:52:37;;;;;;;66.80;30.10;;;3.90;99.90;;;;;;4994250;28;20379;-78
2023/12/08 04:55:06;;;;;;;61.25;32.40;;;3.90;99.90;;;;;;4992890;28;20035;-78
2023/12/08 04:57:32;;;;;;;67.57;32.08;;;3.90;99.90;;;;;;4994168;28;20413;-77
2023/12/08 04:59:58;;;;;;;52.22;29.75;;;4.00;99.90;;;;;;4992691;28;20076;-77
2023/12/08 05:02:24;;;;;;;42.55;28.77;;;4.00;99.90;;;;;;4994079;28;20081;-78
2023/12/08 05:04:50;;;;;;;43.10;28.45;;;4.00;99.90;;;;;;4993521;28;20058;-78
2023/12/08 05:07:15;;;;;;;57.53;30.02;;;3.90;99.90;;;;;;4989504;28;20030;-77
2023/12/08 05:09:41;;;;;;;40.38;28.17;;;3.90;99.90;;;;;;4992066;28;20058;-78
2023/12/08 05:12:06;;;;;;;46.40;29.73;;;3.90;99.90;;;;;;4993716;28;20027;-78
2023/12/08 05:14:32;;;;;;;43.03;30.08;;;3.90;99.90;;;;;;4993258;28;20026;-78
2023/12/08 05:16:57;;;;;;;41.28;28.15;;;3.90;99.90;;;;;;4992078;28;20053;-78
2023/12/08 05:19:23;;;;;;;77.90;33.22;;;4.00;99.90;;;;;;4994371;28;20034;-78
2023/12/08 05:21:48;;;;;;;41.90;29.30;;;4.00;99.90;;;;;;4993829;28;20061;-78
2023/12/08 05:24:14;;;;;;;75.55;30.77;;;4.00;99.90;;;;;;4991262;28;20018;-78
2023/12/08 05:26:40;;;;;;;43.65;29.27;;;4.00;99.90;;;;;;4988204;28;20039;-77
2023/12/08 05:29:05;;;;;;;40.70;27.88;;;4.00;99.90;;;;;;4991249;28;20049;-77
2023/12/08 05:31:31;;;;;;;43.67;28.42;;;4.00;99.90;;;;;;4991642;28;20042;-77
2023/12/08 05:33:56;;;;;;;44.17;29.65;;;4.00;99.90;;;;;;4993755;28;20035;-77
2023/12/08 05:36:22;;;;;;;48.53;30.55;;;4.00;99.90;;;;;;4990800;28;20037;-78
2023/12/08 05:38:47;;;;;;;44.65;30.38;;;4.00;99.90;;;;;;4991409;28;20033;-77
2023/12/08 05:41:13;;;;;;;44.20;29.80;;;4.00;99.90;;;;;;4993685;28;20121;-77
2023/12/08 05:43:38;;;;;;;51.40;30.58;;;4.10;99.90;;;;;;4989897;28;20042;-77
2023/12/08 05:46:04;;;;;;;45.17;30.10;;;4.00;99.90;;;;;;4992450;28;20033;-77
2023/12/08 05:48:30;;;;;;;63.10;33.05;;;4.00;99.90;;;;;;4992804;28;20019;-77
2023/12/08 05:50:55;;;;;;;45.38;29.80;;;4.00;99.90;;;;;;4993410;28;20026;-77
2023/12/08 05:53:21;;;;;;;42.80;29.45;;;4.00;99.90;;;;;;4992192;28;20034;-77
2023/12/08 05:55:46;;;;;;;44.80;30.27;;;4.10;99.90;;;;;;4993371;28;20073;-77
2023/12/08 05:58:12;;;;;;;43.60;30.05;;;4.10;99.90;;;;;;4991835;28;20046;-77
2023/12/08 06:00:37;;;;;;;41.63;28.13;;;4.10;99.90;;;;;;4991938;28;20149;-77
2023/12/08 06:03:03;;;;;;;47.28;31.65;;;4.10;99.90;;;;;;4991918;28;20137;-77
2023/12/08 06:05:29;;;;;;;44.40;29.80;;;4.10;99.90;;;;;;4997047;28;20035;-78
2023/12/08 06:07:54;;;;;;;41.33;29.30;;;4.10;99.90;;;;;;4996929;28;20030;-77
2023/12/08 06:10:22;;;;;;;44.88;30.20;;;4.20;99.90;;;;;;4991869;28;20046;-77
2023/12/08 06:12:47;;;;;;;47.67;29.98;;;4.20;99.90;;;;;;4994911;28;20034;-78
2023/12/08 06:15:13;;;;;;;45.75;28.58;;;4.30;99.90;;;;;;4996894;28;20032;-77
2023/12/08 06:17:38;;;;;;;44.58;29.45;;;4.30;99.90;;;;;;4996816;28;20037;-77
2023/12/08 06:20:04;;;;;;;43.72;29.10;;;4.30;99.90;;;;;;4996495;28;20069;-77
2023/12/08 06:22:30;;;;;;;47.53;31.42;;;4.30;99.90;;;;;;4996164;28;20406;-77
2023/12/08 06:24:56;;;;;;;48.22;32.30;;;4.40;99.90;;;;;;4994864;28;20044;-77
2023/12/08 06:27:22;;;;;;;46.92;32.15;;;4.40;99.90;;;;;;4993576;28;20030;-78
2023/12/08 06:29:50;;;;;;;45.55;30.55;;;4.40;99.90;;;;;;5001065;28;20026;-77
2023/12/08 06:32:15;;;;;;;45.50;30.20;;;4.40;99.90;;;;;;4993334;28;20390;-78
2023/12/08 06:34:41;;;;;;;42.67;30.00;;;4.40;99.90;;;;;;4993834;28;20034;-77
2023/12/08 06:37:07;;;;;;;42.63;29.67;;;4.40;99.90;;;;;;4996518;28;20061;-77
2023/12/08 06:39:32;;;;;;;43.47;29.38;;;4.40;99.90;;;;;;4994543;28;20029;-78
2023/12/08 06:41:58;;;;;;;48.90;31.27;;;4.50;99.90;;;;;;4995815;28;20046;-77
2023/12/08 06:44:23;;;;;;;59.55;31.02;;;4.50;99.90;;;;;;4996014;28;20054;-78
2023/12/08 06:46:49;;;;;;;58.20;32.85;;;4.50;99.90;;;;;;4995890;28;20041;-77
2023/12/08 06:49:14;;;;;;;47.22;30.67;;;4.50;99.90;;;;;;4993708;28;20030;-78
2023/12/08 06:51:40;;;;;;;63.20;42.50;;;4.50;99.90;;;;;;4987777;28;20033;-77
2023/12/08 06:54:05;;;;;;;61.22;34.47;;;4.50;99.90;;;;;;4995900;28;20049;-76
2023/12/08 06:56:31;;;;;;;48.70;33.17;;;4.50;99.90;;;;;;4995405;28;20129;-77
2023/12/08 06:58:57;;;;;;;51.50;33.60;;;4.50;99.90;;;;;;4994864;28;20038;-76
2023/12/08 07:01:22;;;;;;;57.05;33.47;;;4.40;99.90;;;;;;4995714;28;20040;-76
2023/12/08 07:03:48;;;;;;;62.22;36.90;;;4.40;99.90;;;;;;4994495;28;20041;-76
2023/12/08 07:06:14;;;;;;;297.15;72.65;;;4.40;99.90;;;;;;4995746;28;20042;-77
2023/12/08 07:08:39;;;;;;;54.88;34.53;;;4.50;99.90;;;;;;4981399;28;20101;-77
2023/12/08 07:11:05;;;;;;;52.70;34.25;;;4.50;99.90;;;;;;4995056;28;20026;-76
2023/12/08 07:13:30;;;;;;;52.92;35.08;;;4.50;99.90;;;;;;4995566;28;20037;-77
2023/12/08 07:15:56;;;;;;;99.20;39.17;;;4.50;99.90;;;;;;4994343;28;20026;-77
2023/12/08 07:18:22;;;;;;;54.63;34.03;;;4.50;99.90;;;;;;4995218;28;20110;-76
2023/12/08 07:20:47;;;;;;;62.10;37.08;;;4.50;99.90;;;;;;4993655;28;20030;-77
2023/12/08 07:23:13;;;;;;;58.40;36.05;;;4.50;99.90;;;;;;4994817;28;20063;-77
2023/12/08 07:25:38;;;;;;;60.10;35.85;;;4.50;99.90;;;;;;4991924;28;20034;-77
2023/12/08 07:28:04;;;;;;;96.32;40.50;;;4.50;99.90;;;;;;4994927;28;20022;-77
2023/12/08 07:30:30;;;;;;;57.38;35.60;;;4.60;99.90;;;;;;4994171;28;20475;-77
2023/12/08 07:32:56;;;;;;;58.03;36.50;;;4.60;99.90;;;;;;4990255;28;20084;-76
2023/12/08 07:35:21;;;;;;;60.13;36.55;;;4.60;99.90;;;;;;4986483;28;20478;-77
2023/12/08 07:37:47;;;;;;;200.30;50.25;;;4.60;99.90;;;;;;4994966;28;20058;-77
2023/12/08 07:40:12;;;;;;;59.10;36.40;;;4.60;99.90;;;;;;4994648;28;20038;-77
2023/12/08 07:42:38;;;;;;;65.25;36.80;;;4.60;99.90;;;;;;4993044;28;20038;-77
2023/12/08 07:45:05;;;;;;;149.75;46.08;;;4.70;99.90;;;;;;4994995;28;20072;-77
2023/12/08 07:47:32;;;;;;;64.70;37.10;;;4.70;99.90;;;;;;4994838;28;20426;-77
2023/12/08 07:49:57;;;;;;;70.80;38.25;;;4.70;99.90;;;;;;4994940;28;20018;-77
2023/12/08 07:52:23;;;;;;;66.03;37.65;;;4.70;99.90;;;;;;4992042;28;20041;-77
2023/12/08 07:54:48;;;;;;;64.60;37.53;;;4.80;99.90;;;;;;4993345;28;20033;-77
2023/12/08 07:57:14;;;;;;;81.57;39.20;;;4.80;99.90;;;;;;4993371;28;20039;-77
2023/12/08 07:59:39;;;;;;;65.53;37.95;;;4.80;99.90;;;;;;4993536;28;20030;-77
2023/12/08 08:02:05;;;;;;;67.00;40.00;;;4.80;99.90;;;;;;4992378;28;20053;-77
2023/12/08 08:04:31;;;;;;;97.68;42.03;;;4.80;99.90;;;;;;4981461;28;20050;-77
2023/12/08 08:06:57;;;;;;;66.47;37.50;;;4.80;99.90;;;;;;4988153;28;20015;-76
2023/12/08 08:09:22;;;;;;;70.68;37.83;;;4.80;99.90;;;;;;4975092;28;20435;-76
2023/12/08 08:11:48;;;;;;;70.18;37.63;;;4.80;99.90;;;;;;4979052;28;20037;-77
2023/12/08 08:14:14;;;;;;;104.80;44.35;;;4.80;99.90;;;;;;4988805;28;20030;-76
2023/12/08 08:16:39;;;;;;;81.22;41.72;;;4.80;99.90;;;;;;4992942;28;20378;-77
2023/12/08 08:19:05;;;;;;;94.13;40.65;;;4.80;99.90;;;;;;4994213;28;20034;-77
2023/12/08 08:21:30;;;;;;;80.63;38.97;;;4.90;99.90;;;;;;4992589;28;20046;-76
2023/12/08 08:23:56;;;;;;;76.78;38.63;;;4.90;99.90;;;;;;4993518;28;20393;-77
2023/12/08 08:26:21;;;;;;;79.25;40.78;;;4.90;99.90;;;;;;4992575;28;20098;-76
2023/12/08 08:28:47;;;;;;;98.40;41.30;;;4.90;99.90;;;;;;4992084;28;20125;-77
2023/12/08 08:31:17;;;;;;;86.13;39.92;;;4.90;99.90;;;;;;4991103;28;20066;-77
2023/12/08 08:33:43;;;;;;;148.43;46.03;;;4.90;99.90;;;;;;4991894;28;20101;-77
2023/12/08 08:36:10;;;;;;;86.43;41.03;;;5.00;99.90;;;;;;4993478;28;20026;-77
2023/12/08 08:38:35;;;;;;;84.00;41.78;;;5.00;99.90;;;;;;4993366;28;20073;-77
2023/12/08 08:41:01;;;;;;;81.43;40.83;;;4.90;99.90;;;;;;4993374;28;20053;-76
2023/12/08 08:43:26;;;;;;;105.35;42.35;;;4.90;99.90;;;;;;4993804;28;20038;-77
2023/12/08 08:45:52;;;;;;;139.50;49.60;;;5.00;99.90;;;;;;4991921;28;20109;-77
2023/12/08 08:48:18;;;;;;;109.82;44.78;;;4.90;99.90;;;;;;4993187;28;20041;-77
2023/12/08 08:50:43;;;;;;;94.28;40.47;;;5.00;99.90;;;;;;4989549;28;20134;-76
2023/12/08 08:53:09;;;;;;;93.82;42.30;;;5.00;99.90;;;;;;4991572;28;20434;-77
2023/12/08 08:55:34;;;;;;;168.77;50.78;;;5.00;99.90;;;;;;4993581;28;20113;-76
2023/12/08 08:58:00;;;;;;;296.90;68.45;;;5.10;99.90;;;;;;4992141;28;20130;-77
2023/12/08 09:00:26;;;;;;;98.30;42.65;;;5.20;99.90;;;;;;4991610;28;20483;-76
2023/12/08 09:02:52;;;;;;;129.80;46.60;;;5.20;99.90;;;;;;4983801;28;20461;-76
2023/12/08 09:05:19;;;;;;;174.35;50.22;;;5.30;99.90;;;;;;4992974;28;20058;-77
2023/12/08 09:07:44;;;;;;;134.50;45.22;;;5.40;99.90;;;;;;4990301;28;20037;-77
2023/12/08 09:10:10;;;;;;;396.73;79.22;;;5.50;99.90;;;;;;4992317;28;20026;-76
2023/12/08 09:12:36;;;;;;;89.53;40.92;;;5.60;99.90;;;;;;4990274;28;20034;-76
2023/12/08 09:15:03;;;;;;;85.25;40.17;;;5.60;99.90;;;;;;4992868;28;20042;-76
2023/12/08 09:17:29;;;;;;;110.65;42.40;;;5.60;99.90;;;;;;4992900;28;20026;-76
2023/12/08 09:19:55;;;;;;;102.47;42.90;;;5.60;99.90;;;;;;4992175;28;20196;-76
2023/12/08 09:22:20;;;;;;;675.10;131.25;;;5.60;99.90;;;;;;4991980;28;20046;-77
2023/12/08 09:24:46;;;;;;;109.90;41.75;;;5.50;99.90;;;;;;4993337;28;20022;-76
2023/12/08 09:27:11;;;;;;;106.80;43.95;;;5.50;99.90;;;;;;4993505;28;20038;-77
2023/12/08 09:29:37;;;;;;;159.02;48.25;;;5.50;99.90;;;;;;4988448;28;20053;-76
2023/12/08 09:32:03;;;;;;;106.68;41.15;;;5.50;99.90;;;;;;4991528;28;21293;-76
2023/12/08 09:34:28;;;;;;;120.75;44.63;;;5.50;99.90;;;;;;4996528;28;20049;-75
2023/12/08 09:36:54;;;;;;;156.98;54.72;;;5.40;99.90;;;;;;4995764;28;20019;-76
2023/12/08 09:39:20;;;;;;;167.20;48.97;;;5.40;99.90;;;;;;4992266;28;20035;-76
2023/12/08 09:41:46;;;;;;;124.32;45.15;;;5.50;99.90;;;;;;4996504;28;20046;-78
2023/12/08 09:44:13;;;;;;;127.05;43.03;;;5.50;99.90;;;;;;4995984;28;20036;-76
2023/12/08 09:46:45;;;;;;;168.43;47.90;;;5.50;99.90;;;;;;4994848;28;20030;-76
2023/12/08 09:49:28;;;;;;;122.28;45.28;;;5.50;99.90;;;;;;4995301;28;20356;-76
2023/12/08 09:51:55;;;;;;;244.77;55.85;;;5.60;99.90;;;;;;4994689;28;20038;-78
2023/12/08 09:54:21;;;;;;;102.75;42.53;;;5.60;99.90;;;;;;4996531;28;20066;-76
2023/12/08 09:56:52;;;;;;;107.80;43.20;;;5.50;99.90;;;;;;4995290;28;20050;-77
2023/12/08 10:13:07;;;;;;;123.38;47.65;;;5.60;99.90;;;;;;5142805;27;21020;-77
2023/12/08 10:15:32;;;;;;;133.38;48.58;;;6.30;99.90;;;;;;5128863;27;20560;-77
2023/12/08 10:17:58;;;;;;;135.30;48.05;;;6.30;99.90;;;;;;5117599;27;20573;-76
2023/12/08 10:20:23;;;;;;;159.30;50.03;;;6.20;99.90;;;;;;5096293;28;20032;-76
2023/12/08 10:22:51;;;;;;;117.00;45.85;;;6.20;99.90;;;;;;5108706;28;20082;-78
2023/12/08 10:25:21;;;;;;;123.53;43.45;;;6.20;99.90;;;;;;5108580;28;20449;-77
2023/12/08 10:27:49;;;;;;;134.43;46.63;;;6.20;99.90;;;;;;5106864;28;20031;-77
2023/12/08 10:30:16;;;;;;;134.73;45.72;;;6.10;99.90;;;;;;5108606;28;20081;-78
2023/12/08 10:32:43;;;;;;;127.63;46.85;;;6.20;99.90;;;;;;5108652;28;20027;-77
2023/12/08 10:35:11;;;;;;;153.38;49.22;;;6.20;99.90;;;;;;5105013;28;20028;-77
2023/12/08 10:37:41;;;;;;;133.02;47.25;;;6.20;99.90;;;;;;5096971;28;20035;-77
2023/12/08 10:40:12;;;;;;;217.88;56.80;;;6.20;99.90;;;;;;5097571;28;20095;-77
2023/12/08 10:42:38;;;;;;;127.40;48.33;;;6.20;99.90;;;;;;5080709;28;20054;-77
2023/12/08 10:45:10;;;;;;;154.23;49.10;;;6.20;99.90;;;;;;5101168;28;20047;-77
2023/12/08 10:47:44;;;;;;;134.98;47.60;;;6.30;99.90;;;;;;5096879;28;20042;-77
2023/12/08 10:50:11;;;;;;;119.78;45.97;;;6.30;99.90;;;;;;5082634;28;20024;-77
2023/12/08 10:52:38;;;;;;;131.63;48.85;;;6.30;99.90;;;;;;5100566;28;20468;-80
2023/12/08 10:55:08;;;;;;;138.85;48.03;;;6.40;99.90;;;;;;5101426;28;20016;-77
2023/12/08 10:57:35;;;;;;;131.50;48.75;;;6.40;99.90;;;;;;5073763;28;20036;-77
2023/12/08 11:02:59;;;;;;;132.23;47.25;;;6.50;99.90;;;;;;5076936;28;20071;-77
2023/12/08 11:05:48;;;;;;;122.97;46.67;;;6.60;99.90;;;;;;5077471;28;20380;-77
2023/12/08 11:08:18;;;;;;;127.28;48.83;;;6.70;99.90;;;;;;5100608;28;20020;-76
2023/12/08 11:10:47;;;;;;;131.48;48.17;;;6.70;99.90;;;;;;5100300;28;20077;-77
2023/12/08 11:13:27;;;;;;;133.05;49.33;;;6.80;99.90;;;;;;5092616;28;20030;-77
2023/12/08 11:16:26;;;;;;;250.98;60.00;;;6.80;99.90;;;;;;5086350;28;20031;-78
2023/12/08 11:18:52;;;;;;;125.32;49.42;;;6.90;99.90;;;;;;5081577;28;20032;-77
2023/12/08 11:21:18;;;;;;;138.65;51.60;;;6.90;99.90;;;;;;5087492;28;20024;-78
2023/12/08 11:23:44;;;;;;;126.45;51.28;;;6.90;99.90;;;;;;5085140;28;20035;-77
2023/12/08 11:26:26;;;;;;;137.30;49.17;;;7.00;99.90;;;;;;5085582;28;20024;-77
2023/12/08 11:28:59;;;;;;;;;;;7.00;99.90;;;;;;5065931;28;20492;-77
2023/12/08 11:31:43;;;;;;;;;;;7.00;99.90;;;;;;5085945;28;20242;-77
2023/12/08 11:34:17;;;;;;;138.73;50.97;;;6.90;99.90;;;;;;5085566;28;19916;-77
2023/12/08 11:36:47;;;;;;;136.48;50.33;;;7.00;99.90;;;;;;5086949;28;20028;-77
2023/12/08 11:39:33;;;;;;;138.88;51.45;;;7.00;99.90;;;;;;5092148;28;20145;-77
2023/12/08 11:41:59;;;;;;;150.98;50.42;;;7.10;99.90;;;;;;5090221;28;20036;-78
2023/12/08 11:44:25;;;;;;;134.55;50.65;;;7.10;99.90;;;;;;5093399;28;20039;-77
2023/12/08 11:47:00;;;;;;;132.02;49.67;;;7.10;99.90;;;;;;5080561;28;20020;-79
2023/12/08 11:49:26;;;;;;;157.20;51.55;;;7.20;99.90;;;;;;5093272;28;20059;-77
2023/12/08 11:52:13;;;;;;;155.98;53.67;;;7.30;99.90;;;;;;5089768;28;20051;-78
2023/12/08 11:55:01;;;;;;;140.43;51.75;;;7.40;99.90;;;;;;5082188;28;20086;-76
2023/12/08 11:57:29;;;;;;;132.88;51.33;;;7.50;99.90;;;;;;5091992;28;20452;-77
2023/12/08 11:59:55;;;;;;;130.80;49.42;;;7.60;99.90;;;;;;5093972;28;20028;-77
2023/12/08 12:02:22;;;;;;;125.88;48.60;;;7.70;99.90;;;;;;5091834;28;20085;-77
2023/12/08 12:04:49;;;;;;;120.45;47.28;;;7.90;99.90;;;;;;5076310;28;20020;-77
2023/12/08 12:07:19;;;;;;;122.57;47.75;;;7.90;99.90;;;;;;5069848;28;20477;-78
2023/12/08 12:09:49;;;;;;;115.53;44.95;;;8.00;99.90;;;;;;5085640;28;20028;-78
2023/12/08 12:12:26;;;;;;;120.65;46.03;;;8.20;99.90;;;;;;5088121;28;20742;-78
2023/12/08 12:14:55;;;;;;;124.22;44.05;;;8.30;99.90;;;;;;5072848;28;20031;-77
2023/12/08 12:17:24;;;;;;;115.95;43.17;;;8.50;99.90;;;;;;5090773;28;20103;-78
2023/12/08 12:19:52;;;;;;;107.55;43.15;;;8.60;99.90;;;;;;5091504;28;20480;-78
2023/12/08 12:22:19;;;;;;;117.07;44.30;;;8.60;99.90;;;;;;5088540;28;20041;-77
2023/12/08 12:24:46;;;;;;;108.38;42.28;;;8.70;99.90;;;;;;5088546;28;20116;-78
2023/12/08 12:27:11;;;;;;;99.72;41.10;;;8.80;99.90;;;;;;5091464;28;20077;-78
2023/12/08 12:29:38;;;;;;;113.82;44.13;;;8.80;99.90;;;;;;5089027;28;20032;-77
2023/12/08 12:32:07;;;;;;;117.20;44.53;;;8.70;99.90;;;;;;5085451;28;20036;-77
2023/12/08 12:34:33;;;;;;;114.60;45.83;;;8.70;99.90;;;;;;5062424;28;20035;-77
2023/12/08 12:36:59;;;;;;;106.25;42.67;;;8.70;99.90;;;;;;5092220;28;20016;-77
2023/12/08 12:39:25;;;;;;;111.15;45.72;;;8.80;99.90;;;;;;5076809;28;20024;-78
2023/12/08 12:41:56;;;;;;;116.72;41.45;;;8.90;99.90;;;;;;5077566;28;20040;-77
2023/12/08 12:44:21;;;;;;;100.32;42.50;;;9.10;99.90;;;;;;5089489;28;20020;-77
2023/12/08 12:46:47;;;;;;;95.63;37.92;;;9.10;99.90;;;;;;5090380;28;20361;-78
2023/12/08 12:49:14;;;;;;;109.50;40.13;;;9.10;99.90;;;;;;5091596;28;20023;-78
2023/12/08 12:51:42;;;;;;;98.47;36.60;;;9.20;99.90;;;;;;5084023;28;20028;-77